Airfield :
LOGIN :

Register | Disclaimer

   EN    FR    IT 

 










Legend :    VFR   Marginal VFR   IFR   Intensive IFR   Very Intensive IFR
Visi :
Ceiling :
>= 8 km
>= 3000ft
5 to 8 km
1000 to 3000 ft
1500m to 5 km
500 to 1000 ft
800 to 1500m
200 to 500 ft
< 800m
< 200 ft
Symbols :   Thunderstorms  Fog  Heavy snow  Heavy precipitations  Wind > 20 kt
SIGMETs :     Misc.  Thunderstorms  Icing  Turbulence  Mountain Waves  Volcanic Ashes






- Airport Elevation : 776 ft
- IATA code : RMS


ETAR - Ramstein Air Base

CURRENT METAR :
  • 232356Z 09004KT 9999 CLR 01/01 A3034 RMK AO2A SLP284 T00140014 10050 20011 57006 $

EXPIRED METARs :
  • 232256Z 09006KT 9999 CLR 02/02 A3035 RMK AO2A SLP288 T00180018 401320011 $
  • 232156Z 09004KT 9999 CLR 02/02 A3036 RMK AO2A SLP293 T00170017 $

TAF TAF ETAR
Valid from the 23 at 18:00 until the 25 at 00:00 UTC


231800Z 2318/2424 07007KT 9999 FEW015 BKN050 QNH3037INS
BECMG 2320/2321 VRB06KT 9999 FEW020 QNH3036INS
BECMG 2401/2402 VRB06KT 6000 BR SKC QNH3030INS
TEMPO 2403/2407 1600 BR
BECMG 2408/2409 11009KT 9999 NSW FEW030 QNH3022INS
BECMG 2417/2418 VRB05KT 6000 BR FEW007 QNH3021INS
BECMG 2420/2421 VRB05KT 1600 BR SCT007 QNH3020INS TX12/2414Z TN02/2404Z



MET'MAP, your aeronautical weather chart ! - Copyright ORBIFLY December 2007 - Disclaimer

ORBIFLY MET'MAP TEAM :

Programming & Development : Alexandra Zaïnal
Concept & original design : Baudouin d'Aumeries
Assistance for programming : Marc-Olivier Méhu
Technical & hardware support : Manuel Goepfert

Contact : metmap@orbifly.com




SOURCES & CREDITS :

   NOAA